• Join FlightAware (Why Join?)
  • Login
  • US Flag 
01:30PM EDT


 

Airport Tracker/Info


-or-


 

Live Flight TrackerFlight Track Log ✈ UAL6012 ✈ 18-Jul-2013 ✈ KIAH - KDAL

Flight Track Log - Related Links

Times and Time Zones

All times are in EDT time to prevent confusion due to time zone crossing. See the UAL6012 flight status page for this flight to view local times or setup timezone preferences in your user account.

Time Position Orientation Groundspeed Altitude Reporting Facility
EDT Latitude Longitude Course Direction KTS MPH feet Rate Location/Type
10:13PM 29.9767 -95.3008 334° Northwest 160 184 800  Level Houston Center
10:15PM 30.0253 -95.2900 11° North 230 265 2,400 1,740 Climbing Houston Center
10:16PM 30.0892 -95.3206 338° Northwest 248 285 4,600 2,400 Climbing Houston Center
10:17PM 30.3118 -95.5261 332° Northwest  Level FlightAware Approximate
10:18PM 30.3939 -95.5743 334° Northwest  Level FlightAware Approximate
10:18PM 30.2328 -95.4258 328° Northwest 279 321 9,800  Level Houston Center
10:19PM 30.4769 -95.6205 334° Northwest  Level FlightAware Approximate
10:19PM 30.3042 -95.4792 327° Northwest 296 341 11,000  Level Houston Center
10:20PM 30.3856 -95.5400 327° Northwest 333 383 12,100 1,140 Climbing Houston Center
10:21PM 30.4700 -95.6014 328° Northwest 354 407 13,400 1,320 Climbing Houston Center
10:22PM 30.5589 -95.6656 328° Northwest 364 419 14,800 1,140 Climbing Houston Center
10:23PM 30.6511 -95.7114 337° Northwest 370 426 15,800 540 Climbing Houston Center
10:24PM 30.7514 -95.7667 335° Northwest 383 441 16,000 60 Climbing Houston Center
10:25PM 30.8558 -95.8231 335° Northwest 406 467 16,000  Level Houston Center
10:26PM 30.9594 -95.8783 335° Northwest 408 470 16,000  Level Houston Center
10:27PM 31.0625 -95.9344 335° Northwest 407 468 16,000  Level Houston Center
10:28PM 31.1686 -95.9786 340° North 403 464 16,000  Level Houston Center
10:29PM 31.3017 -96.0089 349° North 404 465 16,000  Level Houston Center
10:30PM 31.4114 -96.0344 349° North 401 461 16,000  Level Houston Center
10:31PM 31.5217 -96.0600 349° North 402 463 16,000  Level Houston Center
10:32PM 31.6428 -96.0908 348° North 399 459 16,000  Level Fort Worth Center
10:33PM 31.7517 -96.1186 348° North 399 459 16,000 -300 Level Fort Worth Center
10:34PM 31.8603 -96.1439 349° North 399 459 15,500 -900 Descending Fort Worth Center
10:35PM 31.9547 -96.1817 341° North 393 452 14,300 -1,440 Descending Fort Worth Center
10:36PM 32.0636 -96.2244 342° North 388 447 12,700 -1,560 Descending Fort Worth Center
10:37PM 32.1558 -96.2625 341° North 377 434 11,200 -1,380 Descending Fort Worth Center
10:38PM 32.2439 -96.2933 344° North 345 397 10,000 -1,020 Descending Fort Worth Center
10:39PM 32.3108 -96.3194 342° North 303 349 9,200 -840 Descending Fort Worth Center
10:40PM 32.3947 -96.3531 341° North 283 326 8,400 -900 Descending Fort Worth Center
10:41PM 32.4597 -96.3842 338° Northwest 288 331 7,500 -1,020 Descending Fort Worth Center
10:42PM 32.5353 -96.4278 334° Northwest 277 319 6,400 -1,020 Descending Fort Worth Center
10:43PM 32.5939 -96.4642 332° Northwest 277 319 5,500 -780 Descending Fort Worth Center
10:44PM 32.6694 -96.5100 333° Northwest 272 313 4,900 -660 Descending Fort Worth Center
10:45PM 32.7219 -96.5614 321° Northwest 272 313 4,200 -480 Descending Fort Worth Center
10:46PM 32.7850 -96.6253 320° Northwest 267 307 4,000 -180 Descending Fort Worth Center
10:47PM 32.8353 -96.6767 319° Northwest 267 307 3,900 -480 Descending Fort Worth Center
10:48PM 32.8817 -96.7556 305° West 267 307 3,100 -420 Descending Fort Worth Center
10:49PM 32.9175 -96.8194 304° West 262 302 3,100  Level Fort Worth Center